sensor_id;sensor_type;location;lat;lon;timestamp;P1;durP1;ratioP1;P2;durP2;ratioP2
60714;SDS011;46564;53.096;8.246;2023-08-08T00:03:17;8.88;;;2.13;;
60714;SDS011;46564;53.096;8.246;2023-08-08T00:08:19;8.13;;;1.88;;
60714;SDS011;46564;53.096;8.246;2023-08-08T00:13:21;6.22;;;2.00;;
60714;SDS011;46564;53.096;8.246;2023-08-08T00:18:23;4.60;;;1.67;;
60714;SDS011;46564;53.096;8.246;2023-08-08T00:23:25;4.85;;;1.75;;
60714;SDS011;46564;53.096;8.246;2023-08-08T00:28:27;7.93;;;2.00;;
60714;SDS011;46564;53.096;8.246;2023-08-08T00:33:28;5.30;;;1.70;;
60714;SDS011;46564;53.096;8.246;2023-08-08T00:38:30;5.88;;;1.90;;
60714;SDS011;46564;53.096;8.246;2023-08-08T00:43:31;4.13;;;1.90;;
60714;SDS011;46564;53.096;8.246;2023-08-08T00:48:33;6.57;;;2.20;;
60714;SDS011;46564;53.096;8.246;2023-08-08T00:53:34;8.05;;;2.00;;
60714;SDS011;46564;53.096;8.246;2023-08-08T00:58:36;4.32;;;1.70;;
60714;SDS011;46564;53.096;8.246;2023-08-08T01:03:37;7.28;;;2.03;;
60714;SDS011;46564;53.096;8.246;2023-08-08T01:08:41;11.50;;;2.33;;
60714;SDS011;46564;53.096;8.246;2023-08-08T01:13:46;10.98;;;2.63;;
60714;SDS011;46564;53.096;8.246;2023-08-08T01:18:48;8.57;;;2.38;;
60714;SDS011;46564;53.096;8.246;2023-08-08T01:23:56;4.90;;;2.00;;
60714;SDS011;46564;53.096;8.246;2023-08-08T01:29:02;6.78;;;2.35;;
60714;SDS011;46564;53.096;8.246;2023-08-08T01:34:04;7.45;;;2.58;;
60714;SDS011;46564;53.096;8.246;2023-08-08T01:39:05;4.85;;;2.15;;
60714;SDS011;46564;53.096;8.246;2023-08-08T01:44:12;5.30;;;2.33;;
60714;SDS011;46564;53.096;8.246;2023-08-08T01:49:14;7.38;;;2.78;;
60714;SDS011;46564;53.096;8.246;2023-08-08T01:54:16;7.80;;;2.00;;
60714;SDS011;46564;53.096;8.246;2023-08-08T01:59:17;6.50;;;2.15;;
60714;SDS011;46564;53.096;8.246;2023-08-08T02:04:20;6.85;;;2.35;;
60714;SDS011;46564;53.096;8.246;2023-08-08T02:09:22;7.85;;;2.17;;
60714;SDS011;46564;53.096;8.246;2023-08-08T02:14:23;4.82;;;2.47;;
60714;SDS011;46564;53.096;8.246;2023-08-08T02:19:25;11.40;;;3.03;;
60714;SDS011;46564;53.096;8.246;2023-08-08T02:24:26;6.57;;;2.85;;
60714;SDS011;46564;53.096;8.246;2023-08-08T02:29:28;7.38;;;2.97;;
60714;SDS011;46564;53.096;8.246;2023-08-08T02:34:29;9.48;;;3.10;;
60714;SDS011;46564;53.096;8.246;2023-08-08T02:39:31;8.98;;;3.00;;
60714;SDS011;46564;53.096;8.246;2023-08-08T02:44:33;6.55;;;2.80;;
60714;SDS011;46564;53.096;8.246;2023-08-08T02:49:34;7.35;;;3.50;;
60714;SDS011;46564;53.096;8.246;2023-08-08T02:54:36;6.15;;;2.85;;
60714;SDS011;46564;53.096;8.246;2023-08-08T02:59:37;8.10;;;3.28;;
60714;SDS011;46564;53.096;8.246;2023-08-08T03:04:39;11.30;;;2.92;;
60714;SDS011;46564;53.096;8.246;2023-08-08T03:09:40;9.68;;;3.03;;
60714;SDS011;46564;53.096;8.246;2023-08-08T03:14:42;5.05;;;2.45;;
60714;SDS011;46564;53.096;8.246;2023-08-08T03:19:43;9.05;;;2.92;;
60714;SDS011;46564;53.096;8.246;2023-08-08T03:24:45;9.48;;;3.28;;
60714;SDS011;46564;53.096;8.246;2023-08-08T03:29:46;7.38;;;2.95;;
60714;SDS011;46564;53.096;8.246;2023-08-08T03:34:48;9.18;;;2.65;;
60714;SDS011;46564;53.096;8.246;2023-08-08T03:39:49;7.47;;;2.75;;
60714;SDS011;46564;53.096;8.246;2023-08-08T03:44:51;8.25;;;3.25;;
60714;SDS011;46564;53.096;8.246;2023-08-08T03:49:55;7.70;;;2.95;;
60714;SDS011;46564;53.096;8.246;2023-08-08T03:54:57;8.80;;;3.15;;
60714;SDS011;46564;53.096;8.246;2023-08-08T03:59:58;7.88;;;2.92;;
60714;SDS011;46564;53.096;8.246;2023-08-08T04:05:00;8.73;;;3.00;;
60714;SDS011;46564;53.096;8.246;2023-08-08T04:10:02;9.13;;;2.85;;
60714;SDS011;46564;53.096;8.246;2023-08-08T04:15:04;6.65;;;2.92;;
60714;SDS011;46564;53.096;8.246;2023-08-08T04:20:06;5.63;;;2.85;;
60714;SDS011;46564;53.096;8.246;2023-08-08T04:25:08;7.35;;;3.00;;
60714;SDS011;46564;53.096;8.246;2023-08-08T04:30:10;7.47;;;2.83;;
60714;SDS011;46564;53.096;8.246;2023-08-08T04:35:13;8.75;;;3.53;;
60714;SDS011;46564;53.096;8.246;2023-08-08T04:40:14;7.03;;;2.80;;
60714;SDS011;46564;53.096;8.246;2023-08-08T04:45:16;8.45;;;2.85;;
60714;SDS011;46564;53.096;8.246;2023-08-08T04:50:17;6.53;;;3.13;;
60714;SDS011;46564;53.096;8.246;2023-08-08T04:55:19;8.18;;;3.00;;
60714;SDS011;46564;53.096;8.246;2023-08-08T05:00:20;12.48;;;2.95;;
60714;SDS011;46564;53.096;8.246;2023-08-08T05:05:22;6.45;;;2.65;;
60714;SDS011;46564;53.096;8.246;2023-08-08T05:10:23;6.22;;;2.65;;
60714;SDS011;46564;53.096;8.246;2023-08-08T05:15:25;12.18;;;3.38;;
60714;SDS011;46564;53.096;8.246;2023-08-08T05:20:26;9.52;;;2.88;;
60714;SDS011;46564;53.096;8.246;2023-08-08T05:25:29;6.68;;;2.65;;
60714;SDS011;46564;53.096;8.246;2023-08-08T05:30:30;10.40;;;2.55;;
60714;SDS011;46564;53.096;8.246;2023-08-08T05:35:32;6.82;;;2.72;;
60714;SDS011;46564;53.096;8.246;2023-08-08T05:40:34;9.60;;;3.28;;
60714;SDS011;46564;53.096;8.246;2023-08-08T05:45:36;9.57;;;3.13;;
60714;SDS011;46564;53.096;8.246;2023-08-08T05:50:38;9.40;;;3.33;;
60714;SDS011;46564;53.096;8.246;2023-08-08T05:55:40;8.38;;;2.58;;
60714;SDS011;46564;53.096;8.246;2023-08-08T06:00:42;8.45;;;2.53;;
60714;SDS011;46564;53.096;8.246;2023-08-08T06:05:44;5.13;;;2.28;;
60714;SDS011;46564;53.096;8.246;2023-08-08T06:10:45;7.28;;;1.73;;
60714;SDS011;46564;53.096;8.246;2023-08-08T06:15:46;3.88;;;1.70;;
60714;SDS011;46564;53.096;8.246;2023-08-08T06:20:48;6.82;;;2.28;;
60714;SDS011;46564;53.096;8.246;2023-08-08T06:25:49;5.15;;;1.85;;
60714;SDS011;46564;53.096;8.246;2023-08-08T06:30:51;6.53;;;1.60;;
60714;SDS011;46564;53.096;8.246;2023-08-08T06:35:54;6.63;;;1.60;;
60714;SDS011;46564;53.096;8.246;2023-08-08T06:40:56;5.18;;;1.98;;
60714;SDS011;46564;53.096;8.246;2023-08-08T06:45:58;6.10;;;1.35;;
60714;SDS011;46564;53.096;8.246;2023-08-08T06:50:59;3.90;;;1.20;;
60714;SDS011;46564;53.096;8.246;2023-08-08T06:56:01;3.30;;;1.15;;
60714;SDS011;46564;53.096;8.246;2023-08-08T07:01:05;7.10;;;1.10;;
60714;SDS011;46564;53.096;8.246;2023-08-08T07:06:07;7.38;;;1.55;;
60714;SDS011;46564;53.096;8.246;2023-08-08T07:11:08;4.93;;;1.30;;
60714;SDS011;46564;53.096;8.246;2023-08-08T07:16:10;7.10;;;1.40;;
60714;SDS011;46564;53.096;8.246;2023-08-08T07:21:12;6.65;;;1.50;;
60714;SDS011;46564;53.096;8.246;2023-08-08T07:26:13;4.25;;;1.35;;
60714;SDS011;46564;53.096;8.246;2023-08-08T07:31:15;11.02;;;1.55;;
60714;SDS011;46564;53.096;8.246;2023-08-08T07:36:16;3.13;;;0.93;;
60714;SDS011;46564;53.096;8.246;2023-08-08T07:41:18;19.75;;;1.65;;
60714;SDS011;46564;53.096;8.246;2023-08-08T07:46:19;5.05;;;2.40;;
60714;SDS011;46564;53.096;8.246;2023-08-08T07:51:22;5.65;;;1.40;;
60714;SDS011;46564;53.096;8.246;2023-08-08T07:56:23;3.78;;;0.80;;
60714;SDS011;46564;53.096;8.246;2023-08-08T08:01:28;5.22;;;0.98;;
60714;SDS011;46564;53.096;8.246;2023-08-08T08:06:31;7.38;;;1.40;;
60714;SDS011;46564;53.096;8.246;2023-08-08T08:11:32;5.53;;;1.20;;
60714;SDS011;46564;53.096;8.246;2023-08-08T08:16:34;11.70;;;1.30;;
60714;SDS011;46564;53.096;8.246;2023-08-08T08:21:35;7.60;;;1.10;;
60714;SDS011;46564;53.096;8.246;2023-08-08T08:26:37;9.43;;;1.73;;
60714;SDS011;46564;53.096;8.246;2023-08-08T08:31:38;7.72;;;1.77;;
60714;SDS011;46564;53.096;8.246;2023-08-08T08:36:40;5.57;;;1.13;;
60714;SDS011;46564;53.096;8.246;2023-08-08T08:41:41;8.40;;;1.00;;
60714;SDS011;46564;53.096;8.246;2023-08-08T08:46:49;3.15;;;0.73;;
60714;SDS011;46564;53.096;8.246;2023-08-08T08:51:57;2.72;;;0.60;;
60714;SDS011;46564;53.096;8.246;2023-08-08T08:57:05;4.18;;;1.40;;
60714;SDS011;46564;53.096;8.246;2023-08-08T09:02:07;5.13;;;0.90;;
60714;SDS011;46564;53.096;8.246;2023-08-08T09:07:09;4.20;;;0.90;;
60714;SDS011;46564;53.096;8.246;2023-08-08T09:12:11;3.40;;;0.80;;
60714;SDS011;46564;53.096;8.246;2023-08-08T09:17:13;4.75;;;0.68;;
60714;SDS011;46564;53.096;8.246;2023-08-08T09:22:15;5.43;;;0.80;;
60714;SDS011;46564;53.096;8.246;2023-08-08T09:27:16;4.43;;;1.08;;
60714;SDS011;46564;53.096;8.246;2023-08-08T09:32:18;3.20;;;0.82;;
60714;SDS011;46564;53.096;8.246;2023-08-08T09:37:19;3.30;;;0.77;;
60714;SDS011;46564;53.096;8.246;2023-08-08T09:42:21;5.60;;;0.77;;
60714;SDS011;46564;53.096;8.246;2023-08-08T09:47:22;4.85;;;1.00;;
60714;SDS011;46564;53.096;8.246;2023-08-08T09:52:28;4.13;;;0.65;;
60714;SDS011;46564;53.096;8.246;2023-08-08T09:57:38;3.83;;;0.80;;
60714;SDS011;46564;53.096;8.246;2023-08-08T10:02:42;3.20;;;0.85;;
60714;SDS011;46564;53.096;8.246;2023-08-08T10:07:49;2.85;;;0.60;;
60714;SDS011;46564;53.096;8.246;2023-08-08T10:12:51;2.85;;;0.70;;
60714;SDS011;46564;53.096;8.246;2023-08-08T10:18:00;1.85;;;0.60;;
60714;SDS011;46564;53.096;8.246;2023-08-08T10:23:05;4.20;;;0.90;;
60714;SDS011;46564;53.096;8.246;2023-08-08T10:28:11;3.72;;;0.60;;
60714;SDS011;46564;53.096;8.246;2023-08-08T10:33:39;2.90;;;0.80;;
60714;SDS011;46564;53.096;8.246;2023-08-08T10:38:44;3.13;;;0.70;;
60714;SDS011;46564;53.096;8.246;2023-08-08T10:43:50;6.78;;;0.82;;
60714;SDS011;46564;53.096;8.246;2023-08-08T10:48:57;5.00;;;0.50;;
60714;SDS011;46564;53.096;8.246;2023-08-08T10:54:03;3.05;;;0.85;;
60714;SDS011;46564;53.096;8.246;2023-08-08T10:59:13;8.23;;;0.90;;
60714;SDS011;46564;53.096;8.246;2023-08-08T11:04:20;4.10;;;0.63;;
60714;SDS011;46564;53.096;8.246;2023-08-08T11:09:23;2.28;;;0.60;;
60714;SDS011;46564;53.096;8.246;2023-08-08T11:14:25;2.53;;;0.82;;
60714;SDS011;46564;53.096;8.246;2023-08-08T11:19:27;5.53;;;0.95;;
60714;SDS011;46564;53.096;8.246;2023-08-08T11:24:34;6.95;;;0.95;;
60714;SDS011;46564;53.096;8.246;2023-08-08T11:29:36;2.33;;;0.60;;
60714;SDS011;46564;53.096;8.246;2023-08-08T11:34:37;8.38;;;1.13;;
60714;SDS011;46564;53.096;8.246;2023-08-08T11:39:39;4.90;;;0.93;;
60714;SDS011;46564;53.096;8.246;2023-08-08T11:44:40;1.88;;;0.95;;
60714;SDS011;46564;53.096;8.246;2023-08-08T11:49:42;1.60;;;0.60;;
60714;SDS011;46564;53.096;8.246;2023-08-08T11:54:44;4.60;;;1.00;;
60714;SDS011;46564;53.096;8.246;2023-08-08T11:59:47;2.58;;;0.93;;
60714;SDS011;46564;53.096;8.246;2023-08-08T12:04:50;2.10;;;0.82;;
60714;SDS011;46564;53.096;8.246;2023-08-08T12:09:52;5.72;;;1.77;;
60714;SDS011;46564;53.096;8.246;2023-08-08T12:14:54;2.33;;;0.90;;
60714;SDS011;46564;53.096;8.246;2023-08-08T12:20:00;5.50;;;1.23;;
60714;SDS011;46564;53.096;8.246;2023-08-08T12:25:02;2.90;;;0.90;;
60714;SDS011;46564;53.096;8.246;2023-08-08T12:30:04;3.35;;;0.90;;
60714;SDS011;46564;53.096;8.246;2023-08-08T12:35:08;4.65;;;1.30;;
60714;SDS011;46564;53.096;8.246;2023-08-08T12:40:10;4.57;;;1.20;;
60714;SDS011;46564;53.096;8.246;2023-08-08T12:45:13;5.88;;;0.80;;
60714;SDS011;46564;53.096;8.246;2023-08-08T12:50:15;5.75;;;0.77;;
60714;SDS011;46564;53.096;8.246;2023-08-08T12:55:16;1.10;;;0.70;;
60714;SDS011;46564;53.096;8.246;2023-08-08T13:00:18;5.65;;;0.93;;
60714;SDS011;46564;53.096;8.246;2023-08-08T13:05:20;6.63;;;0.95;;
60714;SDS011;46564;53.096;8.246;2023-08-08T13:10:21;3.03;;;1.00;;
60714;SDS011;46564;53.096;8.246;2023-08-08T13:15:23;6.25;;;0.85;;
60714;SDS011;46564;53.096;8.246;2023-08-08T13:20:25;3.75;;;0.90;;
60714;SDS011;46564;53.096;8.246;2023-08-08T13:25:27;5.13;;;0.80;;
60714;SDS011;46564;53.096;8.246;2023-08-08T13:30:29;3.58;;;0.73;;
60714;SDS011;46564;53.096;8.246;2023-08-08T13:35:30;5.75;;;1.02;;
60714;SDS011;46564;53.096;8.246;2023-08-08T13:40:33;2.97;;;0.65;;
60714;SDS011;46564;53.096;8.246;2023-08-08T13:45:35;1.92;;;0.82;;
60714;SDS011;46564;53.096;8.246;2023-08-08T13:50:37;0.95;;;0.70;;
60714;SDS011;46564;53.096;8.246;2023-08-08T13:55:39;4.88;;;0.80;;
60714;SDS011;46564;53.096;8.246;2023-08-08T14:00:40;2.53;;;0.80;;
60714;SDS011;46564;53.096;8.246;2023-08-08T14:05:42;2.85;;;0.55;;
60714;SDS011;46564;53.096;8.246;2023-08-08T14:10:44;6.57;;;1.05;;
60714;SDS011;46564;53.096;8.246;2023-08-08T14:15:46;2.63;;;0.98;;
60714;SDS011;46564;53.096;8.246;2023-08-08T14:20:47;1.88;;;0.60;;
60714;SDS011;46564;53.096;8.246;2023-08-08T14:25:49;1.90;;;0.57;;
60714;SDS011;46564;53.096;8.246;2023-08-08T14:30:50;3.85;;;0.93;;
60714;SDS011;46564;53.096;8.246;2023-08-08T14:35:52;6.70;;;2.47;;
60714;SDS011;46564;53.096;8.246;2023-08-08T14:40:54;6.25;;;0.80;;
60714;SDS011;46564;53.096;8.246;2023-08-08T14:45:55;7.13;;;2.38;;
60714;SDS011;46564;53.096;8.246;2023-08-08T14:50:59;4.18;;;0.70;;
60714;SDS011;46564;53.096;8.246;2023-08-08T14:56:03;4.43;;;0.80;;
60714;SDS011;46564;53.096;8.246;2023-08-08T15:01:04;3.28;;;0.82;;
60714;SDS011;46564;53.096;8.246;2023-08-08T15:06:06;3.72;;;0.82;;
60714;SDS011;46564;53.096;8.246;2023-08-08T15:11:07;2.70;;;0.95;;
60714;SDS011;46564;53.096;8.246;2023-08-08T15:16:09;2.65;;;0.70;;
60714;SDS011;46564;53.096;8.246;2023-08-08T15:21:11;5.03;;;0.85;;
60714;SDS011;46564;53.096;8.246;2023-08-08T15:26:12;2.95;;;0.68;;
60714;SDS011;46564;53.096;8.246;2023-08-08T15:31:14;10.10;;;0.80;;
60714;SDS011;46564;53.096;8.246;2023-08-08T15:36:15;5.28;;;0.88;;
60714;SDS011;46564;53.096;8.246;2023-08-08T15:41:17;8.30;;;0.70;;
60714;SDS011;46564;53.096;8.246;2023-08-08T15:46:18;3.85;;;0.70;;
60714;SDS011;46564;53.096;8.246;2023-08-08T15:51:20;4.53;;;0.85;;
60714;SDS011;46564;53.096;8.246;2023-08-08T15:56:21;1.65;;;0.68;;
60714;SDS011;46564;53.096;8.246;2023-08-08T16:01:23;4.88;;;0.82;;
60714;SDS011;46564;53.096;8.246;2023-08-08T16:06:25;4.38;;;0.93;;
60714;SDS011;46564;53.096;8.246;2023-08-08T16:11:26;3.78;;;0.68;;
60714;SDS011;46564;53.096;8.246;2023-08-08T16:16:28;3.97;;;0.82;;
60714;SDS011;46564;53.096;8.246;2023-08-08T16:21:29;4.75;;;0.90;;
60714;SDS011;46564;53.096;8.246;2023-08-08T16:26:31;4.18;;;0.88;;
60714;SDS011;46564;53.096;8.246;2023-08-08T16:31:33;4.70;;;0.95;;
60714;SDS011;46564;53.096;8.246;2023-08-08T16:36:36;6.88;;;1.05;;
60714;SDS011;46564;53.096;8.246;2023-08-08T16:41:41;5.07;;;1.00;;
60714;SDS011;46564;53.096;8.246;2023-08-08T16:46:43;4.63;;;0.90;;
60714;SDS011;46564;53.096;8.246;2023-08-08T16:51:44;3.45;;;0.57;;
60714;SDS011;46564;53.096;8.246;2023-08-08T16:56:46;9.82;;;0.93;;
60714;SDS011;46564;53.096;8.246;2023-08-08T17:01:48;3.15;;;0.63;;
60714;SDS011;46564;53.096;8.246;2023-08-08T17:06:50;3.92;;;0.88;;
60714;SDS011;46564;53.096;8.246;2023-08-08T17:11:52;3.00;;;0.82;;
60714;SDS011;46564;53.096;8.246;2023-08-08T17:16:53;5.57;;;0.80;;
60714;SDS011;46564;53.096;8.246;2023-08-08T17:21:55;2.42;;;0.80;;
60714;SDS011;46564;53.096;8.246;2023-08-08T17:27:07;3.90;;;0.68;;
60714;SDS011;46564;53.096;8.246;2023-08-08T17:32:09;4.35;;;1.02;;
60714;SDS011;46564;53.096;8.246;2023-08-08T17:37:10;10.48;;;1.02;;
60714;SDS011;46564;53.096;8.246;2023-08-08T17:42:11;4.22;;;0.77;;
60714;SDS011;46564;53.096;8.246;2023-08-08T17:47:13;8.07;;;1.00;;
60714;SDS011;46564;53.096;8.246;2023-08-08T17:52:14;5.32;;;0.98;;
60714;SDS011;46564;53.096;8.246;2023-08-08T17:57:16;3.05;;;0.80;;
60714;SDS011;46564;53.096;8.246;2023-08-08T18:02:17;10.35;;;0.82;;
60714;SDS011;46564;53.096;8.246;2023-08-08T18:07:19;3.67;;;1.02;;
60714;SDS011;46564;53.096;8.246;2023-08-08T18:12:20;5.25;;;1.00;;
60714;SDS011;46564;53.096;8.246;2023-08-08T18:17:22;6.43;;;0.70;;
60714;SDS011;46564;53.096;8.246;2023-08-08T18:22:23;5.72;;;1.00;;
60714;SDS011;46564;53.096;8.246;2023-08-08T18:27:25;3.22;;;0.80;;
60714;SDS011;46564;53.096;8.246;2023-08-08T18:32:27;5.30;;;1.10;;
60714;SDS011;46564;53.096;8.246;2023-08-08T18:37:28;2.30;;;0.70;;
60714;SDS011;46564;53.096;8.246;2023-08-08T18:42:29;3.92;;;0.98;;
60714;SDS011;46564;53.096;8.246;2023-08-08T18:47:31;6.18;;;0.90;;
60714;SDS011;46564;53.096;8.246;2023-08-08T18:52:32;3.65;;;0.90;;
60714;SDS011;46564;53.096;8.246;2023-08-08T18:57:34;3.55;;;0.90;;
60714;SDS011;46564;53.096;8.246;2023-08-08T19:02:35;4.22;;;0.73;;
60714;SDS011;46564;53.096;8.246;2023-08-08T19:07:37;4.93;;;0.70;;
60714;SDS011;46564;53.096;8.246;2023-08-08T19:12:38;6.38;;;1.13;;
60714;SDS011;46564;53.096;8.246;2023-08-08T19:17:40;7.65;;;1.30;;
60714;SDS011;46564;53.096;8.246;2023-08-08T19:22:55;3.38;;;0.73;;
60714;SDS011;46564;53.096;8.246;2023-08-08T19:27:58;3.10;;;0.80;;
60714;SDS011;46564;53.096;8.246;2023-08-08T19:32:59;1.80;;;0.57;;
60714;SDS011;46564;53.096;8.246;2023-08-08T19:38:01;4.95;;;0.93;;
60714;SDS011;46564;53.096;8.246;2023-08-08T19:43:02;5.38;;;1.10;;
60714;SDS011;46564;53.096;8.246;2023-08-08T19:48:04;4.05;;;0.88;;
60714;SDS011;46564;53.096;8.246;2023-08-08T19:53:05;3.65;;;0.90;;
60714;SDS011;46564;53.096;8.246;2023-08-08T19:58:07;6.82;;;0.93;;
60714;SDS011;46564;53.096;8.246;2023-08-08T20:03:08;5.47;;;1.00;;
60714;SDS011;46564;53.096;8.246;2023-08-08T20:08:10;2.92;;;0.90;;
60714;SDS011;46564;53.096;8.246;2023-08-08T20:13:11;3.38;;;0.90;;
60714;SDS011;46564;53.096;8.246;2023-08-08T20:18:13;2.15;;;0.95;;
60714;SDS011;46564;53.096;8.246;2023-08-08T20:23:14;4.20;;;0.80;;
60714;SDS011;46564;53.096;8.246;2023-08-08T20:28:16;4.38;;;1.17;;
60714;SDS011;46564;53.096;8.246;2023-08-08T20:33:17;4.55;;;1.10;;
60714;SDS011;46564;53.096;8.246;2023-08-08T20:38:19;2.00;;;0.80;;
60714;SDS011;46564;53.096;8.246;2023-08-08T20:43:20;4.10;;;0.80;;
60714;SDS011;46564;53.096;8.246;2023-08-08T20:48:22;5.40;;;0.93;;
60714;SDS011;46564;53.096;8.246;2023-08-08T20:53:23;7.78;;;1.02;;
60714;SDS011;46564;53.096;8.246;2023-08-08T20:58:24;7.05;;;1.10;;
60714;SDS011;46564;53.096;8.246;2023-08-08T21:03:26;11.07;;;1.13;;
60714;SDS011;46564;53.096;8.246;2023-08-08T21:08:27;6.97;;;1.10;;
60714;SDS011;46564;53.096;8.246;2023-08-08T21:13:35;5.40;;;0.80;;
60714;SDS011;46564;53.096;8.246;2023-08-08T21:18:37;5.25;;;0.95;;
60714;SDS011;46564;53.096;8.246;2023-08-08T21:23:38;5.68;;;1.17;;
60714;SDS011;46564;53.096;8.246;2023-08-08T21:28:40;1.65;;;0.57;;
60714;SDS011;46564;53.096;8.246;2023-08-08T21:33:41;5.43;;;0.80;;
60714;SDS011;46564;53.096;8.246;2023-08-08T21:38:43;8.15;;;1.17;;
60714;SDS011;46564;53.096;8.246;2023-08-08T21:43:44;4.32;;;1.13;;
60714;SDS011;46564;53.096;8.246;2023-08-08T21:48:45;6.00;;;0.70;;
60714;SDS011;46564;53.096;8.246;2023-08-08T21:53:47;4.43;;;0.90;;
60714;SDS011;46564;53.096;8.246;2023-08-08T21:58:48;3.53;;;0.88;;
60714;SDS011;46564;53.096;8.246;2023-08-08T22:03:50;3.67;;;0.98;;
60714;SDS011;46564;53.096;8.246;2023-08-08T22:08:52;2.55;;;0.82;;
60714;SDS011;46564;53.096;8.246;2023-08-08T22:13:53;3.15;;;0.70;;
60714;SDS011;46564;53.096;8.246;2023-08-08T22:18:55;6.03;;;1.20;;
60714;SDS011;46564;53.096;8.246;2023-08-08T22:23:56;4.88;;;1.10;;
60714;SDS011;46564;53.096;8.246;2023-08-08T22:28:58;3.72;;;1.20;;
60714;SDS011;46564;53.096;8.246;2023-08-08T22:33:59;3.67;;;1.15;;
60714;SDS011;46564;53.096;8.246;2023-08-08T22:39:01;6.10;;;1.20;;
60714;SDS011;46564;53.096;8.246;2023-08-08T22:44:02;5.72;;;1.23;;
60714;SDS011;46564;53.096;8.246;2023-08-08T22:49:04;3.50;;;0.93;;
60714;SDS011;46564;53.096;8.246;2023-08-08T22:54:05;3.40;;;1.17;;
60714;SDS011;46564;53.096;8.246;2023-08-08T22:59:07;6.00;;;1.45;;
60714;SDS011;46564;53.096;8.246;2023-08-08T23:04:08;2.03;;;0.90;;
60714;SDS011;46564;53.096;8.246;2023-08-08T23:09:10;3.92;;;1.00;;
60714;SDS011;46564;53.096;8.246;2023-08-08T23:14:11;5.30;;;1.25;;
60714;SDS011;46564;53.096;8.246;2023-08-08T23:19:13;3.03;;;1.10;;
60714;SDS011;46564;53.096;8.246;2023-08-08T23:24:14;3.05;;;0.90;;
60714;SDS011;46564;53.096;8.246;2023-08-08T23:29:15;3.25;;;1.08;;
60714;SDS011;46564;53.096;8.246;2023-08-08T23:34:17;4.78;;;3.03;;
60714;SDS011;46564;53.096;8.246;2023-08-08T23:39:18;2.97;;;0.88;;
60714;SDS011;46564;53.096;8.246;2023-08-08T23:44:20;5.22;;;1.00;;
60714;SDS011;46564;53.096;8.246;2023-08-08T23:49:21;5.13;;;1.25;;
60714;SDS011;46564;53.096;8.246;2023-08-08T23:54:23;9.27;;;1.58;;
60714;SDS011;46564;53.096;8.246;2023-08-08T23:59:24;2.83;;;1.02;;
